Webcam Flughafen St.Gallen-Altenrhein

Live-Bilder und Zeitraffer LSZR / ACH.

 

Live aus Altenrhein
LIVE
LSZR 220120Z AUTO VRB01KT 5000 OVC007 M01/M02 Q1035
Zeitraffer heute
2020-01-22 00:14:07
LSZR 212250Z AUTO VRB03KT 6000 OVC008 M01/M02 Q1036